Flight Track Log - Related Links

Times and Time Zones

All times are in EDT time to prevent confusion due to time zone crossing. See the N779NC flight status page for this flight to view local times or setup timezone preferences in your user account.

Time Position Orientation Groundspeed Altitude Reporting Facility
EDT Latitude Longitude Course Direction KTS MPH feet Rate Location/Type
Mon 11:09:33 AM 33.6500 -84.4667 292° West 168 193 2,500  Level Atlanta TRACON
Mon 11:10:39 AM 33.6833 -84.5667 292° West 275 316 4,600 2,381 Climbing Atlanta TRACON
Mon 11:11:39 AM 33.7000 -84.6500 284° West 276 318 7,500 1,970 Climbing Atlanta TRACON
Mon 11:13:57 AM 33.6786 -84.8750 264° West 311 358 11,100 1,727 Climbing Atlanta Center
Mon 11:14:57 AM 33.6861 -84.9925 274° West 336 387 13,200 1,950 Climbing Atlanta Center
Mon 11:15:57 AM 33.7083 -85.1075 283° West 355 409 15,000 1,800 Climbing Atlanta Center
Mon 11:16:57 AM 33.7300 -85.2278 282° West 360 414 16,800 1,650 Climbing Atlanta Center
Mon 11:17:57 AM 33.7539 -85.3531 283° West 381 438 18,300 1,550 Climbing Atlanta Center
Mon 11:18:57 AM 33.7797 -85.4758 284° West 381 438 19,900 1,500 Climbing Atlanta Center
Mon 11:19:57 AM 33.8094 -85.6064 285° West 388 447 21,300 1,050 Climbing Atlanta Center
Mon 11:20:57 AM 33.8472 -85.7347 290° West 403 464 22,000 350 Climbing Atlanta Center
Mon 11:21:57 AM 33.8997 -85.8633 296° West 415 478 22,000  Level Atlanta Center
Mon 11:22:57 AM 33.9497 -86.0022 293° West 429 494 22,000  Level Atlanta Center
Mon 11:23:57 AM 34.0400 -86.1044 317° Northwest 441 507 22,000 -1,492 Level Atlanta Center
Mon 11:26:14 AM 34.2639 -86.2708 328° Northwest 435 501 17,100 -2,437 Descending Memphis Center
Mon 11:27:14 AM 34.3683 -86.3311 335° Northwest 415 478 14,000 -2,750 Descending Memphis Center
Mon 11:28:14 AM 34.4639 -86.3872 334° Northwest 400 460 11,600 -1,800 Descending Memphis Center
Mon 11:29:14 AM 34.5494 -86.4564 326° Northwest 365 420 10,400 -1,350 Descending Memphis Center
Mon 11:30:14 AM 34.6200 -86.5036 331° Northwest 325 374 8,900 -2,150 Descending Memphis Center
Mon 11:31:14 AM 34.6842 -86.5586 325° Northwest 292 336 6,100 -2,200 Descending Memphis Center
Mon 11:32:14 AM 34.7461 -86.6089 326° Northwest 280 322 4,500 -1,100 Descending Memphis Center
Mon 11:33:14 AM 34.8058 -86.6519 329° Northwest 264 304 3,900 -550 Descending Memphis Center
Mon 11:34:14 AM 34.8347 -86.7114 301° West 214 246 3,400 -500 Descending Memphis Center
Mon 11:35:14 AM 34.8069 -86.7606 235° Southwest 147 169 2,900 -450 Descending Memphis Center
Mon 11:36:14 AM 34.7550 -86.7628 182° South 132 152 2,500 -650 Descending Memphis Center
Mon 11:37:14 AM 34.7069 -86.7647 182° South 152 175 1,600 -850 Descending Memphis Center
Mon 11:38:14 AM 34.6675 -86.7664 182° South 152 175 800 50 Descending Memphis Center
Mon 11:39:14 AM 34.6647 -86.8144 266° West 152 175 1,700 150 Climbing Memphis Center
Mon 11:40:14 AM 34.6806 -86.7886 53° Northeast 75 86 1,100 -600 Descending Memphis Center
Mon 11:42:00 AM 34.6333 -86.7667 209° Southwest  Level FlightAware Approximate

Login

Don't have an account? Register now (free) for customized features, flight alerts, and more!